createdAt,value
2023-03-20T00:02:07.418Z,68.80
2023-03-20T00:05:16.860Z,67.89
2023-03-20T00:08:29.779Z,67.59
2023-03-20T00:11:56.802Z,68.19
2023-03-20T00:15:24.895Z,67.62
2023-03-20T00:18:52.862Z,65.73
2023-03-20T00:22:01.747Z,65.56
2023-03-20T00:25:31.679Z,65.05
2023-03-20T00:28:48.118Z,66.39
2023-03-20T00:32:16.297Z,66.95
2023-03-20T00:35:44.392Z,66.72
2023-03-20T00:39:13.956Z,66.96
2023-03-20T00:42:42.425Z,66.83
2023-03-20T00:46:10.562Z,67.79
2023-03-20T00:49:38.947Z,67.99
2023-03-20T00:53:06.819Z,67.92
2023-03-20T00:56:35.620Z,69.66
2023-03-20T00:59:45.757Z,69.81
2023-03-20T01:03:14.045Z,69.35
2023-03-20T01:06:42.604Z,70.49
2023-03-20T01:10:10.896Z,70.92
2023-03-20T01:13:35.131Z,71.06
2023-03-20T01:17:03.197Z,70.30
2023-03-20T01:20:31.362Z,71.94
2023-03-20T01:23:39.975Z,72.04
2023-03-20T01:27:07.989Z,71.35
2023-03-20T01:30:36.013Z,71.15
2023-03-20T01:34:03.939Z,71.71
2023-03-20T01:37:31.817Z,71.92
2023-03-20T01:40:40.761Z,71.16
2023-03-20T01:44:08.889Z,72.52
2023-03-20T01:47:36.869Z,72.64
2023-03-20T01:51:04.840Z,73.30
2023-03-20T01:54:32.836Z,72.15
2023-03-20T01:58:02.980Z,72.39
2023-03-20T02:01:29.412Z,71.23
2023-03-20T02:04:57.733Z,73.03
2023-03-20T02:08:25.725Z,72.22
2023-03-20T02:11:41.824Z,72.87
2023-03-20T02:14:50.574Z,71.79
2023-03-20T02:18:24.179Z,72.20
2023-03-20T02:21:52.531Z,71.22
2023-03-20T02:25:01.376Z,71.33
2023-03-20T02:28:29.499Z,72.71
2023-03-20T02:31:52.962Z,72.80
2023-03-20T02:35:20.936Z,72.44
2023-03-20T02:38:49.005Z,72.94
2023-03-20T02:42:17.076Z,73.77
2023-03-20T02:45:45.145Z,72.52
2023-03-20T02:49:13.391Z,73.62
2023-03-20T02:52:41.881Z,71.96
2023-03-20T02:56:09.899Z,73.54
2023-03-20T02:59:37.883Z,72.14
2023-03-20T03:02:48.588Z,72.81
2023-03-20T03:06:16.325Z,72.29
2023-03-20T03:09:44.373Z,72.59
2023-03-20T03:13:12.822Z,70.43
2023-03-20T03:16:41.250Z,71.61
2023-03-20T03:20:09.471Z,70.65
2023-03-20T03:23:37.635Z,70.58
2023-03-20T03:27:05.817Z,72.36
2023-03-20T03:30:33.962Z,71.34
2023-03-20T03:34:03.328Z,71.56
2023-03-20T03:37:31.370Z,71.39
2023-03-20T03:40:59.547Z,73.21
2023-03-20T03:44:28.148Z,73.90
2023-03-20T03:47:56.047Z,73.86
2023-03-20T03:51:24.055Z,74.41
2023-03-20T03:54:52.035Z,73.27
2023-03-20T03:57:51.524Z,73.04
2023-03-20T04:01:00.342Z,73.17
2023-03-20T04:04:28.137Z,72.71
2023-03-20T04:07:56.049Z,72.12
2023-03-20T04:11:25.328Z,72.13
2023-03-20T04:14:53.761Z,72.62
2023-03-20T04:18:23.098Z,71.90
2023-03-20T04:21:32.449Z,71.47
2023-03-20T04:25:00.494Z,71.74
2023-03-20T04:28:24.116Z,70.93
2023-03-20T04:31:52.176Z,70.59
2023-03-20T04:35:03.501Z,70.02
2023-03-20T04:38:15.528Z,69.67
2023-03-20T04:41:43.886Z,70.32
2023-03-20T04:45:13.347Z,69.48
2023-03-20T04:48:41.650Z,69.23
2023-03-20T04:52:10.345Z,70.13
2023-03-20T04:55:19.979Z,69.79
2023-03-20T04:58:47.946Z,69.60
2023-03-20T05:01:56.643Z,69.83
2023-03-20T05:05:24.647Z,69.91
2023-03-20T05:08:53.278Z,70.23
2023-03-20T05:12:05.303Z,69.40
2023-03-20T05:15:16.816Z,69.45
2023-03-20T05:18:10.828Z,69.45
2023-03-20T05:21:12.347Z,69.62
2023-03-20T05:24:39.453Z,69.48
2023-03-20T05:28:13.318Z,69.22
2023-03-20T05:31:47.265Z,70.01
2023-03-20T05:35:24.473Z,69.01
2023-03-20T05:38:52.690Z,68.58
2023-03-20T05:42:32.798Z,69.27
2023-03-20T05:45:57.477Z,68.61
2023-03-20T05:49:37.880Z,68.71
2023-03-20T05:53:06.068Z,67.40
2023-03-20T05:56:33.440Z,66.64
2023-03-20T05:59:59.874Z,65.96
2023-03-20T06:03:07.845Z,64.80
2023-03-20T06:05:56.085Z,64.28
2023-03-20T06:09:24.296Z,63.36
2023-03-20T06:12:52.573Z,62.38
2023-03-20T06:16:20.686Z,62.36
2023-03-20T06:19:25.441Z,62.16
2023-03-20T06:22:34.019Z,62.11
2023-03-20T06:25:48.402Z,62.13
2023-03-20T06:28:57.254Z,61.84
2023-03-20T06:31:54.260Z,61.40
2023-03-20T06:35:22.599Z,61.43
2023-03-20T06:38:11.678Z,61.65
2023-03-20T06:41:01.369Z,61.24
2023-03-20T06:44:25.618Z,61.06
2023-03-20T06:47:34.077Z,61.17
2023-03-20T06:51:01.922Z,60.77
2023-03-20T06:54:18.107Z,60.65
2023-03-20T06:57:46.317Z,60.45
2023-03-20T07:01:14.336Z,60.11
2023-03-20T07:04:04.620Z,59.37
2023-03-20T07:07:32.702Z,58.35
2023-03-20T07:10:42.872Z,58.20
2023-03-20T07:13:55.005Z,58.02
2023-03-20T07:17:23.444Z,57.66
2023-03-20T07:20:33.145Z,56.28
2023-03-20T07:23:50.046Z,54.89
2023-03-20T07:27:18.137Z,55.51
2023-03-20T07:30:46.428Z,54.25
2023-03-20T07:34:03.200Z,52.62
2023-03-20T07:37:19.716Z,52.39
2023-03-20T07:40:48.166Z,51.38
2023-03-20T07:44:16.206Z,49.68
2023-03-20T07:47:44.559Z,49.40
2023-03-20T07:51:12.677Z,48.95
2023-03-20T07:53:42.148Z,49.00
2023-03-20T07:57:10.296Z,48.60
2023-03-20T08:00:38.415Z,47.86
2023-03-20T08:04:06.457Z,49.06
2023-03-20T08:07:34.560Z,48.31
2023-03-20T08:10:43.483Z,47.65
2023-03-20T08:13:59.750Z,47.13
2023-03-20T08:17:14.970Z,47.02
2023-03-20T08:20:24.923Z,46.54
2023-03-20T08:23:33.291Z,45.92
2023-03-20T08:27:01.339Z,46.17
2023-03-20T08:30:13.283Z,46.73
2023-03-20T08:33:21.628Z,47.34
2023-03-20T08:36:27.524Z,47.65
2023-03-20T08:39:55.279Z,47.87
2023-03-20T08:43:04.631Z,48.62
2023-03-20T08:46:33.063Z,48.98
2023-03-20T08:50:01.225Z,49.20
2023-03-20T08:52:57.494Z,49.64
2023-03-20T08:56:25.520Z,49.37
2023-03-20T08:59:54.648Z,46.86
2023-03-20T09:03:03.233Z,46.73
2023-03-20T09:06:12.240Z,47.42
2023-03-20T09:09:38.012Z,47.15
2023-03-20T09:12:07.701Z,47.14
2023-03-20T09:15:36.156Z,47.18
2023-03-20T09:18:44.473Z,46.96
2023-03-20T09:22:12.801Z,47.26
2023-03-20T09:25:40.964Z,47.96
2023-03-20T09:28:49.214Z,47.70
2023-03-20T09:31:38.207Z,47.89
2023-03-20T09:34:54.216Z,48.07
2023-03-20T09:37:44.249Z,47.93
2023-03-20T09:40:35.790Z,47.63
2023-03-20T09:44:05.082Z,46.97
2023-03-20T09:47:00.380Z,47.04
2023-03-20T09:49:39.847Z,45.93
2023-03-20T09:52:48.853Z,47.24
2023-03-20T09:55:56.908Z,45.94
2023-03-20T09:59:12.564Z,44.81
2023-03-20T10:02:02.157Z,44.71
2023-03-20T10:04:51.028Z,44.29
2023-03-20T10:07:49.152Z,44.25
2023-03-20T10:10:41.254Z,44.17
2023-03-20T10:13:50.102Z,43.57
2023-03-20T10:16:58.846Z,43.48
2023-03-20T10:20:07.503Z,42.97
2023-03-20T10:23:16.966Z,42.46
2023-03-20T10:26:27.051Z,42.82
2023-03-20T10:29:19.313Z,42.83
2023-03-20T10:32:48.042Z,43.15
2023-03-20T10:35:48.157Z,42.57
2023-03-20T10:38:44.679Z,42.39
2023-03-20T10:41:53.480Z,41.87
2023-03-20T10:45:21.465Z,41.72
2023-03-20T10:48:10.475Z,41.36
2023-03-20T10:51:19.286Z,42.16
2023-03-20T10:54:28.214Z,41.57
2023-03-20T10:57:37.494Z,41.96
2023-03-20T11:01:05.437Z,40.94
2023-03-20T11:04:30.249Z,40.66
2023-03-20T11:07:58.019Z,40.99
2023-03-20T11:11:26.365Z,41.28
2023-03-20T11:14:54.343Z,40.01
2023-03-20T11:18:22.375Z,39.83
2023-03-20T11:21:50.458Z,38.90
2023-03-20T11:24:59.121Z,39.70
2023-03-20T11:28:11.056Z,39.11
2023-03-20T11:31:20.134Z,39.75
2023-03-20T11:33:49.117Z,39.75
2023-03-20T11:37:17.047Z,40.02
2023-03-20T11:40:25.944Z,39.64
2023-03-20T11:43:36.384Z,39.10
2023-03-20T11:47:04.472Z,39.10
2023-03-20T11:50:32.721Z,39.16
2023-03-20T11:53:25.950Z,38.97
2023-03-20T11:56:07.960Z,38.71
2023-03-20T11:59:17.218Z,39.05
2023-03-20T12:02:23.452Z,38.56
2023-03-20T12:05:16.812Z,38.35
2023-03-20T12:08:22.737Z,39.02
2023-03-20T12:10:51.789Z,38.63
2023-03-20T12:14:00.779Z,38.25
2023-03-20T12:16:29.689Z,38.28
2023-03-20T12:19:19.223Z,37.91
2023-03-20T12:22:09.297Z,37.34
2023-03-20T12:25:37.541Z,37.45
2023-03-20T12:28:53.334Z,37.97
2023-03-20T12:32:01.691Z,37.84
2023-03-20T12:35:21.486Z,37.12
2023-03-20T12:38:10.879Z,35.40
2023-03-20T12:41:38.867Z,35.67
2023-03-20T12:44:55.007Z,35.72
2023-03-20T12:48:05.515Z,35.62
2023-03-20T12:51:33.748Z,35.05
2023-03-20T12:55:01.950Z,34.39
2023-03-20T12:58:09.956Z,34.52
2023-03-20T13:00:59.428Z,34.64
2023-03-20T13:04:23.091Z,34.98
2023-03-20T13:07:32.149Z,35.79
2023-03-20T13:11:00.641Z,36.23
2023-03-20T13:14:17.336Z,36.68
2023-03-20T13:17:45.421Z,36.50
2023-03-20T13:21:13.689Z,37.22
2023-03-20T13:24:41.946Z,37.49
2023-03-20T13:28:12.276Z,37.69
2023-03-20T13:31:40.801Z,38.23
2023-03-20T13:34:49.202Z,38.79
2023-03-20T13:38:17.665Z,38.94
2023-03-20T13:41:45.907Z,39.27
2023-03-20T13:45:14.093Z,39.16
2023-03-20T13:48:42.468Z,38.99
2023-03-20T13:51:51.147Z,38.85
2023-03-20T13:55:19.314Z,38.91
2023-03-20T13:58:48.535Z,38.69
2023-03-20T14:02:17.091Z,39.56
2023-03-20T14:05:25.036Z,40.16
2023-03-20T14:08:34.089Z,40.76
2023-03-20T14:12:02.355Z,41.89
2023-03-20T14:15:30.589Z,42.59
2023-03-20T14:18:59.597Z,42.67
2023-03-20T14:22:27.978Z,42.10
2023-03-20T14:25:56.323Z,41.81
2023-03-20T14:29:24.397Z,40.97
2023-03-20T14:32:52.549Z,40.13
2023-03-20T14:36:29.350Z,39.14
2023-03-20T14:39:37.506Z,38.37
2023-03-20T14:42:26.261Z,38.18
2023-03-20T14:45:54.179Z,38.08
2023-03-20T14:49:22.278Z,38.23
2023-03-20T14:52:50.397Z,38.06
2023-03-20T14:56:18.510Z,37.22
2023-03-20T14:59:46.573Z,36.44
2023-03-20T15:02:54.711Z,36.07
2023-03-20T15:06:19.490Z,35.36
2023-03-20T15:08:49.230Z,35.28
2023-03-20T15:11:57.344Z,34.72
2023-03-20T15:15:25.168Z,34.30
2023-03-20T15:18:53.228Z,33.16
2023-03-20T15:22:21.413Z,33.51
2023-03-20T15:25:11.732Z,33.32
2023-03-20T15:28:39.634Z,33.83
2023-03-20T15:32:14.485Z,35.35
2023-03-20T15:35:35.724Z,36.19
2023-03-20T15:39:03.775Z,37.53
2023-03-20T15:42:12.763Z,38.44
2023-03-20T15:45:21.101Z,39.40
2023-03-20T15:48:30.105Z,39.94
2023-03-20T15:51:38.845Z,41.01
2023-03-20T15:55:07.190Z,41.82
2023-03-20T15:58:35.438Z,42.59
2023-03-20T16:01:43.934Z,43.11
2023-03-20T16:05:11.916Z,43.46
2023-03-20T16:08:39.866Z,44.63
2023-03-20T16:12:08.344Z,45.83
2023-03-20T16:15:32.938Z,47.90
2023-03-20T16:19:01.238Z,48.65
2023-03-20T16:22:10.094Z,50.07
2023-03-20T16:25:38.488Z,50.71
2023-03-20T16:29:06.377Z,51.86
2023-03-20T16:32:34.388Z,52.67
2023-03-20T16:36:02.468Z,54.25
2023-03-20T16:39:11.213Z,54.86
2023-03-20T16:42:00.481Z,55.58
2023-03-20T16:45:28.514Z,56.45
2023-03-20T16:48:57.333Z,58.57
2023-03-20T16:52:25.383Z,59.28
2023-03-20T16:55:53.375Z,60.70
2023-03-20T16:59:05.543Z,61.41
2023-03-20T17:02:33.905Z,61.62
2023-03-20T17:06:01.846Z,61.64
2023-03-20T17:09:29.933Z,62.15
2023-03-20T17:12:58.543Z,61.68
2023-03-20T17:16:26.900Z,61.59
2023-03-20T17:19:44.903Z,62.20
2023-03-20T17:23:12.852Z,62.65
2023-03-20T17:26:41.092Z,63.78
2023-03-20T17:30:11.591Z,65.13
2023-03-20T17:33:36.846Z,66.14
2023-03-20T17:37:04.902Z,66.22
2023-03-20T17:40:16.758Z,67.19
2023-03-20T17:43:44.869Z,67.21
2023-03-20T17:46:58.632Z,67.60
2023-03-20T17:50:23.272Z,67.26
2023-03-20T17:53:51.099Z,67.40
2023-03-20T17:57:00.992Z,67.29
2023-03-20T18:00:24.877Z,68.22
2023-03-20T18:03:33.241Z,67.35
2023-03-20T18:07:01.594Z,69.22
2023-03-20T18:10:29.331Z,69.04
2023-03-20T18:13:57.352Z,68.85
2023-03-20T18:17:25.508Z,69.90
2023-03-20T18:20:53.673Z,71.66
2023-03-20T18:24:21.776Z,72.57
2023-03-20T18:27:49.864Z,71.72
2023-03-20T18:31:17.767Z,72.56
2023-03-20T18:34:27.645Z,72.45
2023-03-20T18:37:16.778Z,72.65
2023-03-20T18:40:44.776Z,73.34
2023-03-20T18:44:12.749Z,73.04
2023-03-20T18:47:21.596Z,72.00
2023-03-20T18:50:49.566Z,71.30
2023-03-20T18:54:17.861Z,69.38
2023-03-20T18:57:45.776Z,67.99
2023-03-20T19:00:54.231Z,67.84
2023-03-20T19:04:22.413Z,67.63
2023-03-20T19:07:50.308Z,67.37
2023-03-20T19:11:21.272Z,67.41
2023-03-20T19:14:46.088Z,66.74
2023-03-20T19:18:14.049Z,66.45
2023-03-20T19:21:42.140Z,66.72
2023-03-20T19:25:10.088Z,66.69
2023-03-20T19:28:40.886Z,67.89
2023-03-20T19:32:05.908Z,68.61
2023-03-20T19:39:03.066Z,70.07
2023-03-20T19:42:52.918Z,70.43
2023-03-20T19:45:59.548Z,71.40
2023-03-20T19:49:08.664Z,72.00
2023-03-20T19:52:36.525Z,72.69
2023-03-20T19:56:04.271Z,72.86
2023-03-20T19:59:32.871Z,72.67
2023-03-20T20:03:00.601Z,73.60
2023-03-20T20:06:32.236Z,73.70
2023-03-20T20:09:56.633Z,72.46
2023-03-20T20:12:25.254Z,73.79
2023-03-20T20:15:53.311Z,74.18
2023-03-20T20:19:21.351Z,73.94
2023-03-20T20:22:49.411Z,72.65
2023-03-20T20:26:17.414Z,72.91
2023-03-20T20:29:45.235Z,73.25
2023-03-20T20:33:14.412Z,73.18
2023-03-20T20:39:50.932Z,71.11
2023-03-20T20:43:43.949Z,71.06
2023-03-20T20:46:46.918Z,71.44
2023-03-20T20:50:14.659Z,70.66
2023-03-20T20:53:42.713Z,71.89
2023-03-20T20:56:50.795Z,71.29
2023-03-20T21:00:00.145Z,71.39
2023-03-20T21:03:09.833Z,71.29
2023-03-20T21:07:06.235Z,71.12
2023-03-20T21:10:06.382Z,71.09
2023-03-20T21:13:34.452Z,70.93
2023-03-20T21:17:02.486Z,71.40
2023-03-20T21:20:30.395Z,71.45
2023-03-20T21:23:58.393Z,71.69
2023-03-20T21:27:26.595Z,71.42
2023-03-20T21:30:34.605Z,71.08
2023-03-20T21:34:02.564Z,70.43
2023-03-20T21:40:58.677Z,69.42
2023-03-20T21:45:05.762Z,69.19
2023-03-20T21:55:22.370Z,68.37
2023-03-20T22:05:53.131Z,69.33
2023-03-20T22:09:39.047Z,69.60
2023-03-20T22:13:00.388Z,70.19
2023-03-20T22:16:24.230Z,71.82
2023-03-20T22:20:03.574Z,71.16
2023-03-20T22:23:06.922Z,71.82
2023-03-20T22:26:30.966Z,71.61
2023-03-20T22:29:52.459Z,72.74
2023-03-20T22:33:23.698Z,73.50
2023-03-20T22:36:25.659Z,74.18
2023-03-20T22:46:05.659Z,75.66
2023-03-20T22:49:20.534Z,76.50
2023-03-20T22:52:49.886Z,77.01
2023-03-20T22:56:16.093Z,77.53
2023-03-20T22:59:44.159Z,78.58
2023-03-20T23:02:57.295Z,79.62
2023-03-20T23:06:22.030Z,79.86
2023-03-20T23:09:49.792Z,80.38
2023-03-20T23:13:17.611Z,81.39
2023-03-20T23:16:45.627Z,81.91
2023-03-20T23:20:08.674Z,80.55
2023-03-20T23:23:23.275Z,81.67
2023-03-20T23:26:31.932Z,82.86
2023-03-20T23:29:59.571Z,82.68
2023-03-20T23:33:08.862Z,83.46
2023-03-20T23:36:37.696Z,83.47
2023-03-20T23:40:04.579Z,83.93
2023-03-20T23:43:32.594Z,83.58
2023-03-20T23:47:03.289Z,82.81
2023-03-20T23:50:36.873Z,82.54
2023-03-20T23:53:56.832Z,82.99
2023-03-20T23:56:48.531Z,82.44
